sensor_id;sensor_type;location;lat;lon;timestamp;pressure;altitude;pressure_sealevel;temperature;humidity
12219;BME280;6172;42.646;23.344;2023-07-02T00:02:13;93989.94;;;17.20;100.00
12219;BME280;6172;42.646;23.344;2023-07-02T00:04:40;93989.66;;;17.18;100.00
12219;BME280;6172;42.646;23.344;2023-07-02T00:07:08;93982.06;;;17.28;100.00
12219;BME280;6172;42.646;23.344;2023-07-02T00:09:36;93985.81;;;17.01;100.00
12219;BME280;6172;42.646;23.344;2023-07-02T00:12:04;93984.31;;;17.00;100.00
12219;BME280;6172;42.646;23.344;2023-07-02T00:14:30;93984.66;;;16.93;100.00
12219;BME280;6172;42.646;23.344;2023-07-02T00:16:57;93986.19;;;16.94;100.00
12219;BME280;6172;42.646;23.344;2023-07-02T00:19:24;93978.19;;;16.82;100.00
12219;BME280;6172;42.646;23.344;2023-07-02T00:21:52;93982.38;;;16.92;100.00
12219;BME280;6172;42.646;23.344;2023-07-02T00:24:19;93973.19;;;16.95;100.00
12219;BME280;6172;42.646;23.344;2023-07-02T00:26:48;93963.75;;;16.87;100.00
12219;BME280;6172;42.646;23.344;2023-07-02T00:29:15;93980.16;;;16.58;100.00
12219;BME280;6172;42.646;23.344;2023-07-02T00:31:42;93978.72;;;16.71;100.00
12219;BME280;6172;42.646;23.344;2023-07-02T00:34:08;93990.13;;;16.79;100.00
12219;BME280;6172;42.646;23.344;2023-07-02T00:36:35;93985.16;;;16.68;100.00
12219;BME280;6172;42.646;23.344;2023-07-02T00:39:02;93992.72;;;16.82;100.00
12219;BME280;6172;42.646;23.344;2023-07-02T00:41:29;94005.53;;;16.85;100.00
12219;BME280;6172;42.646;23.344;2023-07-02T00:43:58;94004.41;;;16.92;100.00
12219;BME280;6172;42.646;23.344;2023-07-02T00:46:25;93995.69;;;16.93;100.00
12219;BME280;6172;42.646;23.344;2023-07-02T00:48:54;94005.91;;;16.93;100.00
12219;BME280;6172;42.646;23.344;2023-07-02T00:51:22;94002.00;;;16.85;100.00
12219;BME280;6172;42.646;23.344;2023-07-02T00:53:50;94005.16;;;16.92;100.00
12219;BME280;6172;42.646;23.344;2023-07-02T00:56:17;94007.63;;;16.90;100.00
12219;BME280;6172;42.646;23.344;2023-07-02T00:58:46;94000.72;;;16.95;100.00
12219;BME280;6172;42.646;23.344;2023-07-02T01:01:16;93990.94;;;16.94;100.00
12219;BME280;6172;42.646;23.344;2023-07-02T01:03:51;93988.00;;;16.97;100.00
12219;BME280;6172;42.646;23.344;2023-07-02T01:06:22;93983.94;;;17.07;100.00
12219;BME280;6172;42.646;23.344;2023-07-02T01:08:51;93994.38;;;17.03;100.00
12219;BME280;6172;42.646;23.344;2023-07-02T01:11:18;93995.97;;;16.95;100.00
12219;BME280;6172;42.646;23.344;2023-07-02T01:13:47;94005.16;;;16.92;100.00
12219;BME280;6172;42.646;23.344;2023-07-02T01:16:16;94006.84;;;16.90;100.00
12219;BME280;6172;42.646;23.344;2023-07-02T01:18:44;94007.63;;;16.90;100.00
12219;BME280;6172;42.646;23.344;2023-07-02T01:21:13;94009.13;;;16.91;100.00
12219;BME280;6172;42.646;23.344;2023-07-02T01:23:39;93995.13;;;17.04;100.00
12219;BME280;6172;42.646;23.344;2023-07-02T01:26:07;94008.91;;;16.80;100.00
12219;BME280;6172;42.646;23.344;2023-07-02T01:28:36;94014.63;;;16.91;100.00
12219;BME280;6172;42.646;23.344;2023-07-02T01:31:04;94012.19;;;16.93;100.00
12219;BME280;6172;42.646;23.344;2023-07-02T01:33:31;93980.34;;;16.78;100.00
12219;BME280;6172;42.646;23.344;2023-07-02T01:35:58;93977.34;;;16.43;100.00
12219;BME280;6172;42.646;23.344;2023-07-02T01:38:27;93986.72;;;16.60;100.00
12219;BME280;6172;42.646;23.344;2023-07-02T01:40:53;93983.28;;;16.74;100.00
12219;BME280;6172;42.646;23.344;2023-07-02T01:43:20;93981.75;;;16.73;100.00
12219;BME280;6172;42.646;23.344;2023-07-02T01:45:48;93977.22;;;16.61;100.00
12219;BME280;6172;42.646;23.344;2023-07-02T01:48:15;93972.06;;;16.54;100.00
12219;BME280;6172;42.646;23.344;2023-07-02T01:50:41;93974.88;;;16.45;100.00
12219;BME280;6172;42.646;23.344;2023-07-02T01:53:08;93973.03;;;16.28;100.00
12219;BME280;6172;42.646;23.344;2023-07-02T01:55:37;93981.38;;;16.57;100.00
12219;BME280;6172;42.646;23.344;2023-07-02T01:58:04;93963.41;;;16.47;100.00
12219;BME280;6172;42.646;23.344;2023-07-02T02:00:31;93962.13;;;16.33;100.00
12219;BME280;6172;42.646;23.344;2023-07-02T02:02:58;93974.06;;;16.30;100.00
12219;BME280;6172;42.646;23.344;2023-07-02T02:05:25;93971.22;;;16.25;100.00
12219;BME280;6172;42.646;23.344;2023-07-02T02:07:51;93972.41;;;16.24;100.00
12219;BME280;6172;42.646;23.344;2023-07-02T02:10:18;93985.34;;;16.32;100.00
12219;BME280;6172;42.646;23.344;2023-07-02T02:12:47;93984.69;;;16.46;100.00
12219;BME280;6172;42.646;23.344;2023-07-02T02:15:13;93996.78;;;16.40;100.00
12219;BME280;6172;42.646;23.344;2023-07-02T02:17:40;93986.47;;;16.26;100.00
12219;BME280;6172;42.646;23.344;2023-07-02T02:20:08;93989.56;;;16.42;100.00
12219;BME280;6172;42.646;23.344;2023-07-02T02:22:35;93971.81;;;16.52;100.00
12219;BME280;6172;42.646;23.344;2023-07-02T02:25:03;93960.81;;;16.52;100.00
12219;BME280;6172;42.646;23.344;2023-07-02T02:27:30;93952.31;;;16.41;100.00
12219;BME280;6172;42.646;23.344;2023-07-02T02:29:59;93973.53;;;16.17;100.00
12219;BME280;6172;42.646;23.344;2023-07-02T02:32:25;93984.22;;;16.15;100.00
12219;BME280;6172;42.646;23.344;2023-07-02T02:34:52;93981.44;;;16.24;100.00
12219;BME280;6172;42.646;23.344;2023-07-02T02:37:20;93976.69;;;16.25;100.00
12219;BME280;6172;42.646;23.344;2023-07-02T02:39:48;93960.28;;;16.07;100.00
12219;BME280;6172;42.646;23.344;2023-07-02T02:42:16;93958.72;;;15.82;100.00
12219;BME280;6172;42.646;23.344;2023-07-02T02:44:42;93964.59;;;15.57;100.00
12219;BME280;6172;42.646;23.344;2023-07-02T02:47:10;93969.56;;;15.86;100.00
12219;BME280;6172;42.646;23.344;2023-07-02T02:49:37;93959.00;;;15.93;100.00
12219;BME280;6172;42.646;23.344;2023-07-02T02:52:05;93961.66;;;15.79;100.00
12219;BME280;6172;42.646;23.344;2023-07-02T02:54:32;93971.06;;;15.87;100.00
12219;BME280;6172;42.646;23.344;2023-07-02T02:56:59;93984.25;;;15.74;100.00
12219;BME280;6172;42.646;23.344;2023-07-02T02:59:26;93981.09;;;15.57;100.00
12219;BME280;6172;42.646;23.344;2023-07-02T03:01:53;93983.03;;;15.66;100.00
12219;BME280;6172;42.646;23.344;2023-07-02T03:04:21;93976.19;;;15.61;100.00
12219;BME280;6172;42.646;23.344;2023-07-02T03:06:51;93978.78;;;15.56;100.00
12219;BME280;6172;42.646;23.344;2023-07-02T03:09:18;93970.69;;;15.61;100.00
12219;BME280;6172;42.646;23.344;2023-07-02T03:11:46;93987.16;;;15.70;100.00
12219;BME280;6172;42.646;23.344;2023-07-02T03:14:13;93970.97;;;15.72;100.00
12219;BME280;6172;42.646;23.344;2023-07-02T03:16:40;93987.75;;;15.83;100.00
12219;BME280;6172;42.646;23.344;2023-07-02T03:19:07;93979.63;;;15.89;100.00
12219;BME280;6172;42.646;23.344;2023-07-02T03:21:35;93980.97;;;15.93;100.00
12219;BME280;6172;42.646;23.344;2023-07-02T03:24:02;93981.47;;;16.15;100.00
12219;BME280;6172;42.646;23.344;2023-07-02T03:26:29;93968.66;;;16.12;100.00
12219;BME280;6172;42.646;23.344;2023-07-02T03:28:56;93976.50;;;16.05;100.00
12219;BME280;6172;42.646;23.344;2023-07-02T03:31:23;93982.16;;;16.01;100.00
12219;BME280;6172;42.646;23.344;2023-07-02T03:33:50;93982.38;;;15.89;100.00
12219;BME280;6172;42.646;23.344;2023-07-02T03:36:17;94000.50;;;15.95;100.00
12219;BME280;6172;42.646;23.344;2023-07-02T03:38:45;94003.81;;;16.08;100.00
12219;BME280;6172;42.646;23.344;2023-07-02T03:41:12;94003.22;;;16.04;100.00
12219;BME280;6172;42.646;23.344;2023-07-02T03:43:39;94007.75;;;16.16;100.00
12219;BME280;6172;42.646;23.344;2023-07-02T03:46:05;93998.41;;;16.23;100.00
12219;BME280;6172;42.646;23.344;2023-07-02T03:48:32;93986.16;;;16.24;100.00
12219;BME280;6172;42.646;23.344;2023-07-02T03:51:01;93989.78;;;16.06;100.00
12219;BME280;6172;42.646;23.344;2023-07-02T03:53:28;93991.06;;;16.20;100.00
12219;BME280;6172;42.646;23.344;2023-07-02T03:55:56;93995.66;;;16.23;100.00
12219;BME280;6172;42.646;23.344;2023-07-02T03:58:23;93995.53;;;16.17;100.00
12219;BME280;6172;42.646;23.344;2023-07-02T04:00:50;93999.31;;;16.20;100.00
12219;BME280;6172;42.646;23.344;2023-07-02T04:03:16;93994.59;;;16.20;100.00
12219;BME280;6172;42.646;23.344;2023-07-02T04:05:43;94001.69;;;16.36;100.00
12219;BME280;6172;42.646;23.344;2023-07-02T04:08:11;93992.09;;;16.31;100.00
12219;BME280;6172;42.646;23.344;2023-07-02T04:10:38;93996.53;;;16.29;100.00
12219;BME280;6172;42.646;23.344;2023-07-02T04:13:06;93994.72;;;16.26;100.00
12219;BME280;6172;42.646;23.344;2023-07-02T04:15:33;94002.19;;;16.25;100.00
12219;BME280;6172;42.646;23.344;2023-07-02T04:18:00;94003.44;;;16.24;100.00
12219;BME280;6172;42.646;23.344;2023-07-02T04:20:27;94011.97;;;16.26;100.00
12219;BME280;6172;42.646;23.344;2023-07-02T04:22:55;94020.03;;;16.30;100.00
12219;BME280;6172;42.646;23.344;2023-07-02T04:25:21;94025.31;;;16.42;100.00
12219;BME280;6172;42.646;23.344;2023-07-02T04:27:48;94021.25;;;16.38;100.00
12219;BME280;6172;42.646;23.344;2023-07-02T04:30:17;94012.00;;;16.50;100.00
12219;BME280;6172;42.646;23.344;2023-07-02T04:32:46;94031.72;;;16.48;100.00
12219;BME280;6172;42.646;23.344;2023-07-02T04:35:13;94034.94;;;16.47;100.00
12219;BME280;6172;42.646;23.344;2023-07-02T04:37:40;94042.44;;;16.46;100.00
12219;BME280;6172;42.646;23.344;2023-07-02T04:40:07;94042.13;;;16.44;100.00
12219;BME280;6172;42.646;23.344;2023-07-02T04:42:36;94049.22;;;16.36;100.00
12219;BME280;6172;42.646;23.344;2023-07-02T04:45:05;94047.06;;;16.31;100.00
12219;BME280;6172;42.646;23.344;2023-07-02T04:47:33;94056.06;;;16.41;100.00
12219;BME280;6172;42.646;23.344;2023-07-02T04:50:01;94062.28;;;16.50;100.00
12219;BME280;6172;42.646;23.344;2023-07-02T04:52:29;94062.91;;;16.45;100.00
12219;BME280;6172;42.646;23.344;2023-07-02T04:55:02;94065.94;;;16.47;100.00
12219;BME280;6172;42.646;23.344;2023-07-02T04:57:29;94065.06;;;16.41;100.00
12219;BME280;6172;42.646;23.344;2023-07-02T04:59:56;94077.56;;;16.42;100.00
12219;BME280;6172;42.646;23.344;2023-07-02T05:02:23;94070.91;;;16.34;100.00
12219;BME280;6172;42.646;23.344;2023-07-02T05:04:52;94073.63;;;16.43;100.00
12219;BME280;6172;42.646;23.344;2023-07-02T05:07:18;94077.84;;;16.53;100.00
12219;BME280;6172;42.646;23.344;2023-07-02T05:09:45;94070.94;;;16.58;100.00
12219;BME280;6172;42.646;23.344;2023-07-02T05:12:13;94082.44;;;16.80;100.00
12219;BME280;6172;42.646;23.344;2023-07-02T05:14:40;94077.50;;;16.69;100.00
12219;BME280;6172;42.646;23.344;2023-07-02T05:17:08;94072.78;;;16.61;100.00
12219;BME280;6172;42.646;23.344;2023-07-02T05:19:34;94074.75;;;16.69;100.00
12219;BME280;6172;42.646;23.344;2023-07-02T05:22:03;94087.25;;;16.70;100.00
12219;BME280;6172;42.646;23.344;2023-07-02T05:24:30;94088.97;;;16.59;100.00
12219;BME280;6172;42.646;23.344;2023-07-02T05:26:57;94074.28;;;16.29;100.00
12219;BME280;6172;42.646;23.344;2023-07-02T05:29:24;94084.41;;;16.14;100.00
12219;BME280;6172;42.646;23.344;2023-07-02T05:31:51;94089.81;;;16.41;100.00
12219;BME280;6172;42.646;23.344;2023-07-02T05:34:17;94083.25;;;16.39;100.00
12219;BME280;6172;42.646;23.344;2023-07-02T05:36:44;94080.03;;;16.40;100.00
12219;BME280;6172;42.646;23.344;2023-07-02T05:39:13;94082.25;;;16.27;100.00
12219;BME280;6172;42.646;23.344;2023-07-02T05:41:41;94087.47;;;16.16;100.00
12219;BME280;6172;42.646;23.344;2023-07-02T05:44:07;94102.19;;;16.37;100.00
12219;BME280;6172;42.646;23.344;2023-07-02T05:46:35;94086.66;;;16.66;100.00
12219;BME280;6172;42.646;23.344;2023-07-02T05:49:01;94080.94;;;16.79;100.00
12219;BME280;6172;42.646;23.344;2023-07-02T05:51:28;94085.44;;;16.67;100.00
12219;BME280;6172;42.646;23.344;2023-07-02T05:53:55;94088.84;;;16.86;100.00
12219;BME280;6172;42.646;23.344;2023-07-02T05:56:23;94088.75;;;17.04;100.00
12219;BME280;6172;42.646;23.344;2023-07-02T05:58:50;94083.63;;;17.11;100.00
12219;BME280;6172;42.646;23.344;2023-07-02T06:01:17;94074.88;;;17.13;100.00
12219;BME280;6172;42.646;23.344;2023-07-02T06:03:45;94079.09;;;17.23;100.00
12219;BME280;6172;42.646;23.344;2023-07-02T06:06:11;94077.56;;;17.46;100.00
12219;BME280;6172;42.646;23.344;2023-07-02T06:08:39;94069.56;;;18.00;100.00
12219;BME280;6172;42.646;23.344;2023-07-02T06:11:06;94045.16;;;18.77;100.00
12219;BME280;6172;42.646;23.344;2023-07-02T06:13:35;94038.28;;;19.27;100.00
12219;BME280;6172;42.646;23.344;2023-07-02T06:16:02;94036.97;;;19.22;100.00
12219;BME280;6172;42.646;23.344;2023-07-02T06:18:29;94033.44;;;19.22;100.00
12219;BME280;6172;42.646;23.344;2023-07-02T06:20:56;94021.78;;;18.92;100.00
12219;BME280;6172;42.646;23.344;2023-07-02T06:23:23;94026.06;;;18.93;100.00
12219;BME280;6172;42.646;23.344;2023-07-02T06:25:50;94032.91;;;18.78;100.00
12219;BME280;6172;42.646;23.344;2023-07-02T06:28:24;94027.91;;;18.82;100.00
12219;BME280;6172;42.646;23.344;2023-07-02T06:30:52;94027.41;;;18.63;100.00
12219;BME280;6172;42.646;23.344;2023-07-02T06:33:19;94028.03;;;18.38;100.00
12219;BME280;6172;42.646;23.344;2023-07-02T06:35:46;94027.94;;;18.47;100.00
12219;BME280;6172;42.646;23.344;2023-07-02T06:38:12;94023.97;;;18.19;100.00
12219;BME280;6172;42.646;23.344;2023-07-02T06:40:39;94021.41;;;18.65;100.00
12219;BME280;6172;42.646;23.344;2023-07-02T06:43:06;94025.50;;;18.69;100.00
12219;BME280;6172;42.646;23.344;2023-07-02T06:45:34;94020.44;;;18.48;100.00
12219;BME280;6172;42.646;23.344;2023-07-02T06:48:03;94029.66;;;18.45;100.00
12219;BME280;6172;42.646;23.344;2023-07-02T06:50:30;94028.06;;;18.09;100.00
12219;BME280;6172;42.646;23.344;2023-07-02T06:52:57;94028.97;;;17.72;100.00
12219;BME280;6172;42.646;23.344;2023-07-02T06:55:24;94034.97;;;17.70;100.00
12219;BME280;6172;42.646;23.344;2023-07-02T06:57:51;94027.16;;;17.69;100.00
12219;BME280;6172;42.646;23.344;2023-07-02T07:00:18;94023.16;;;17.84;100.00
12219;BME280;6172;42.646;23.344;2023-07-02T07:02:45;94035.53;;;17.89;100.00
12219;BME280;6172;42.646;23.344;2023-07-02T07:05:14;94036.59;;;17.53;100.00
12219;BME280;6172;42.646;23.344;2023-07-02T07:07:41;94031.13;;;17.97;100.00
12219;BME280;6172;42.646;23.344;2023-07-02T07:10:08;94039.47;;;18.17;100.00
12219;BME280;6172;42.646;23.344;2023-07-02T07:12:35;94028.25;;;18.35;100.00
12219;BME280;6172;42.646;23.344;2023-07-02T07:15:02;94034.13;;;18.42;100.00
12219;BME280;6172;42.646;23.344;2023-07-02T07:17:29;94024.34;;;18.41;100.00
12219;BME280;6172;42.646;23.344;2023-07-02T07:19:58;94027.97;;;18.67;100.00
12219;BME280;6172;42.646;23.344;2023-07-02T07:22:29;94026.88;;;19.19;100.00
12219;BME280;6172;42.646;23.344;2023-07-02T07:24:56;94017.41;;;19.72;100.00
12219;BME280;6172;42.646;23.344;2023-07-02T07:27:24;94029.56;;;19.80;100.00
12219;BME280;6172;42.646;23.344;2023-07-02T07:29:51;94026.47;;;19.72;100.00
12219;BME280;6172;42.646;23.344;2023-07-02T07:32:20;94021.09;;;20.14;100.00
12219;BME280;6172;42.646;23.344;2023-07-02T07:34:47;94013.91;;;20.02;100.00
12219;BME280;6172;42.646;23.344;2023-07-02T07:37:14;94009.41;;;20.30;100.00
12219;BME280;6172;42.646;23.344;2023-07-02T07:39:43;94005.53;;;20.53;100.00
12219;BME280;6172;42.646;23.344;2023-07-02T07:42:10;94002.78;;;21.01;100.00
12219;BME280;6172;42.646;23.344;2023-07-02T07:44:37;94011.22;;;20.81;100.00
12219;BME280;6172;42.646;23.344;2023-07-02T07:47:04;93995.84;;;21.38;100.00
12219;BME280;6172;42.646;23.344;2023-07-02T07:49:31;94000.06;;;22.37;100.00
12219;BME280;6172;42.646;23.344;2023-07-02T07:51:58;93985.28;;;23.08;100.00
12219;BME280;6172;42.646;23.344;2023-07-02T07:54:25;93989.34;;;23.01;100.00
12219;BME280;6172;42.646;23.344;2023-07-02T07:56:53;93988.34;;;22.88;100.00
12219;BME280;6172;42.646;23.344;2023-07-02T07:59:20;93998.50;;;21.92;100.00
12219;BME280;6172;42.646;23.344;2023-07-02T08:01:48;93998.78;;;22.38;100.00
12219;BME280;6172;42.646;23.344;2023-07-02T08:04:15;94003.31;;;23.42;100.00
12219;BME280;6172;42.646;23.344;2023-07-02T08:06:41;93996.72;;;23.97;100.00
12219;BME280;6172;42.646;23.344;2023-07-02T08:09:08;94008.16;;;25.48;88.44
12219;BME280;6172;42.646;23.344;2023-07-02T08:11:36;93997.81;;;26.81;74.56
12219;BME280;6172;42.646;23.344;2023-07-02T08:14:05;93996.38;;;28.04;65.33
12219;BME280;6172;42.646;23.344;2023-07-02T08:16:32;93992.09;;;29.06;59.17
12219;BME280;6172;42.646;23.344;2023-07-02T08:19:00;93997.81;;;28.52;58.09
12219;BME280;6172;42.646;23.344;2023-07-02T08:21:28;93999.88;;;25.98;67.39
12219;BME280;6172;42.646;23.344;2023-07-02T08:23:55;94003.91;;;25.84;72.79
12219;BME280;6172;42.646;23.344;2023-07-02T08:26:23;94007.13;;;25.51;76.89
12219;BME280;6172;42.646;23.344;2023-07-02T08:28:51;94000.03;;;25.32;77.35
12219;BME280;6172;42.646;23.344;2023-07-02T08:31:19;93994.91;;;23.53;100.00
12219;BME280;6172;42.646;23.344;2023-07-02T08:33:46;93990.00;;;24.11;100.00
12219;BME280;6172;42.646;23.344;2023-07-02T08:36:13;93992.22;;;24.53;97.71
12219;BME280;6172;42.646;23.344;2023-07-02T08:38:40;93989.66;;;23.44;100.00
12219;BME280;6172;42.646;23.344;2023-07-02T08:41:08;93990.63;;;22.84;100.00
12219;BME280;6172;42.646;23.344;2023-07-02T08:43:35;93984.88;;;22.60;100.00
12219;BME280;6172;42.646;23.344;2023-07-02T08:46:03;94001.44;;;21.49;100.00
12219;BME280;6172;42.646;23.344;2023-07-02T08:48:34;93994.97;;;22.13;100.00
12219;BME280;6172;42.646;23.344;2023-07-02T08:51:02;93987.94;;;22.40;100.00
12219;BME280;6172;42.646;23.344;2023-07-02T08:53:29;93994.75;;;22.11;100.00
12219;BME280;6172;42.646;23.344;2023-07-02T08:56:00;93984.34;;;23.92;100.00
12219;BME280;6172;42.646;23.344;2023-07-02T08:58:27;93986.69;;;25.01;100.00
12219;BME280;6172;42.646;23.344;2023-07-02T09:01:04;93986.00;;;24.89;96.63
12219;BME280;6172;42.646;23.344;2023-07-02T09:03:31;93986.19;;;24.73;98.44
12219;BME280;6172;42.646;23.344;2023-07-02T09:05:59;93989.88;;;24.33;98.32
12219;BME280;6172;42.646;23.344;2023-07-02T09:08:27;93988.91;;;24.54;100.00
12219;BME280;6172;42.646;23.344;2023-07-02T09:10:54;93985.28;;;24.00;98.99
12219;BME280;6172;42.646;23.344;2023-07-02T09:13:31;93982.63;;;23.83;100.00
12219;BME280;6172;42.646;23.344;2023-07-02T09:15:58;93986.19;;;23.27;100.00
12219;BME280;6172;42.646;23.344;2023-07-02T09:18:26;93982.09;;;23.39;100.00
12219;BME280;6172;42.646;23.344;2023-07-02T09:20:54;93982.88;;;23.80;100.00
12219;BME280;6172;42.646;23.344;2023-07-02T09:23:22;93973.91;;;23.63;100.00
12219;BME280;6172;42.646;23.344;2023-07-02T09:25:49;93979.06;;;24.18;100.00
12219;BME280;6172;42.646;23.344;2023-07-02T09:28:18;93974.28;;;24.48;95.48
12219;BME280;6172;42.646;23.344;2023-07-02T09:30:52;93972.84;;;25.32;89.87
12219;BME280;6172;42.646;23.344;2023-07-02T09:33:20;93968.50;;;26.11;82.99
12219;BME280;6172;42.646;23.344;2023-07-02T09:35:47;93967.78;;;26.24;83.16
12219;BME280;6172;42.646;23.344;2023-07-02T09:38:15;93970.47;;;24.51;94.96
12219;BME280;6172;42.646;23.344;2023-07-02T09:40:47;93972.72;;;24.77;92.02
12219;BME280;6172;42.646;23.344;2023-07-02T09:43:14;93966.25;;;25.54;94.20
12219;BME280;6172;42.646;23.344;2023-07-02T09:45:43;93966.16;;;24.74;96.94
12219;BME280;6172;42.646;23.344;2023-07-02T09:48:12;93954.56;;;26.56;82.25
12219;BME280;6172;42.646;23.344;2023-07-02T09:50:41;93962.97;;;26.82;76.84
12219;BME280;6172;42.646;23.344;2023-07-02T09:53:08;93954.94;;;27.04;73.67
12219;BME280;6172;42.646;23.344;2023-07-02T09:55:35;93955.91;;;27.07;74.18
12219;BME280;6172;42.646;23.344;2023-07-02T09:58:05;93954.94;;;26.78;77.33
12219;BME280;6172;42.646;23.344;2023-07-02T10:00:32;93959.75;;;26.33;77.44
12219;BME280;6172;42.646;23.344;2023-07-02T10:02:59;93959.28;;;26.16;76.32
12219;BME280;6172;42.646;23.344;2023-07-02T10:05:27;93956.19;;;24.84;87.39
12219;BME280;6172;42.646;23.344;2023-07-02T10:07:56;93952.53;;;24.17;100.00
12219;BME280;6172;42.646;23.344;2023-07-02T10:10:27;93963.09;;;24.19;100.00
12219;BME280;6172;42.646;23.344;2023-07-02T10:12:55;93958.97;;;23.66;100.00
12219;BME280;6172;42.646;23.344;2023-07-02T10:15:29;93960.28;;;24.30;100.00
12219;BME280;6172;42.646;23.344;2023-07-02T10:17:58;93951.94;;;24.30;100.00
12219;BME280;6172;42.646;23.344;2023-07-02T10:20:34;93948.03;;;24.38;100.00
12219;BME280;6172;42.646;23.344;2023-07-02T10:23:02;93937.06;;;24.16;100.00
12219;BME280;6172;42.646;23.344;2023-07-02T10:25:31;93943.50;;;24.83;97.37
12219;BME280;6172;42.646;23.344;2023-07-02T10:28:00;93932.78;;;24.15;100.00
12219;BME280;6172;42.646;23.344;2023-07-02T10:30:33;93928.16;;;25.19;90.19
12219;BME280;6172;42.646;23.344;2023-07-02T10:33:07;93921.16;;;25.68;82.75
12219;BME280;6172;42.646;23.344;2023-07-02T10:35:35;93911.09;;;25.78;88.39
12219;BME280;6172;42.646;23.344;2023-07-02T10:38:03;93917.69;;;26.57;82.55
12219;BME280;6172;42.646;23.344;2023-07-02T10:40:33;93917.84;;;26.33;83.27
12219;BME280;6172;42.646;23.344;2023-07-02T10:43:00;93926.63;;;26.82;82.78
12219;BME280;6172;42.646;23.344;2023-07-02T10:45:35;93918.88;;;27.27;76.74
12219;BME280;6172;42.646;23.344;2023-07-02T10:48:03;93907.25;;;27.23;74.26
12219;BME280;6172;42.646;23.344;2023-07-02T10:50:31;93915.97;;;27.06;72.44
12219;BME280;6172;42.646;23.344;2023-07-02T10:52:58;93916.31;;;26.19;80.40
12219;BME280;6172;42.646;23.344;2023-07-02T10:55:26;93914.06;;;25.67;84.25
12219;BME280;6172;42.646;23.344;2023-07-02T10:58:03;93910.75;;;25.50;87.12
12219;BME280;6172;42.646;23.344;2023-07-02T11:00:31;93911.13;;;25.23;91.52
12219;BME280;6172;42.646;23.344;2023-07-02T11:03:03;93908.41;;;25.17;88.79
12219;BME280;6172;42.646;23.344;2023-07-02T11:05:30;93904.69;;;25.09;86.54
12219;BME280;6172;42.646;23.344;2023-07-02T11:08:07;93909.44;;;24.96;85.47
12219;BME280;6172;42.646;23.344;2023-07-02T11:10:35;93913.22;;;24.74;85.61
12219;BME280;6172;42.646;23.344;2023-07-02T11:13:10;93898.31;;;25.14;83.00
12219;BME280;6172;42.646;23.344;2023-07-02T11:15:37;93903.44;;;25.47;80.82
12219;BME280;6172;42.646;23.344;2023-07-02T11:18:12;93904.25;;;25.79;74.28
12219;BME280;6172;42.646;23.344;2023-07-02T11:20:40;93897.25;;;25.73;73.40
12219;BME280;6172;42.646;23.344;2023-07-02T11:23:17;93888.97;;;25.67;73.34
12219;BME280;6172;42.646;23.344;2023-07-02T11:26:43;93890.88;;;26.04;69.02
12219;BME280;6172;42.646;23.344;2023-07-02T11:29:11;93904.22;;;25.98;68.24
12219;BME280;6172;42.646;23.344;2023-07-02T11:31:38;93897.47;;;26.51;64.49
12219;BME280;6172;42.646;23.344;2023-07-02T11:34:11;93891.81;;;26.83;63.07
12219;BME280;6172;42.646;23.344;2023-07-02T11:36:38;93889.94;;;27.11;61.84
12219;BME280;6172;42.646;23.344;2023-07-02T11:39:05;93892.91;;;27.39;60.54
12219;BME280;6172;42.646;23.344;2023-07-02T11:41:36;93904.50;;;26.84;65.80
12219;BME280;6172;42.646;23.344;2023-07-02T11:44:05;93903.66;;;26.89;63.46
12219;BME280;6172;42.646;23.344;2023-07-02T11:46:31;93904.22;;;25.98;70.17
12219;BME280;6172;42.646;23.344;2023-07-02T11:48:59;93907.59;;;25.59;78.98
12219;BME280;6172;42.646;23.344;2023-07-02T11:51:26;93911.38;;;25.25;80.08
12219;BME280;6172;42.646;23.344;2023-07-02T11:53:53;93920.53;;;25.20;80.66
12219;BME280;6172;42.646;23.344;2023-07-02T11:56:20;93922.44;;;24.64;86.40
12219;BME280;6172;42.646;23.344;2023-07-02T11:58:47;93926.09;;;24.53;89.74
12219;BME280;6172;42.646;23.344;2023-07-02T12:01:16;93924.31;;;24.56;92.26
12219;BME280;6172;42.646;23.344;2023-07-02T12:03:43;93925.59;;;24.55;90.39
12219;BME280;6172;42.646;23.344;2023-07-02T12:06:10;93920.13;;;24.44;84.09
12219;BME280;6172;42.646;23.344;2023-07-02T12:08:37;93932.03;;;24.44;78.14
12219;BME280;6172;42.646;23.344;2023-07-02T12:11:05;93938.78;;;24.54;79.37
12219;BME280;6172;42.646;23.344;2023-07-02T12:13:34;93935.78;;;24.71;74.30
12219;BME280;6172;42.646;23.344;2023-07-02T12:16:02;93932.03;;;24.68;75.44
12219;BME280;6172;42.646;23.344;2023-07-02T12:18:31;93935.47;;;24.26;79.08
12219;BME280;6172;42.646;23.344;2023-07-02T12:20:58;93939.75;;;24.33;80.12
12219;BME280;6172;42.646;23.344;2023-07-02T12:23:25;93932.72;;;24.21;82.29
12219;BME280;6172;42.646;23.344;2023-07-02T12:25:53;93930.28;;;24.12;84.93
12219;BME280;6172;42.646;23.344;2023-07-02T12:28:23;93940.88;;;24.13;87.09
12219;BME280;6172;42.646;23.344;2023-07-02T12:30:51;93931.03;;;24.12;88.62
12219;BME280;6172;42.646;23.344;2023-07-02T12:33:18;93940.63;;;23.81;94.06
12219;BME280;6172;42.646;23.344;2023-07-02T12:35:46;93935.31;;;23.43;100.00
12219;BME280;6172;42.646;23.344;2023-07-02T12:38:13;93931.06;;;23.31;100.00
12219;BME280;6172;42.646;23.344;2023-07-02T12:40:41;93945.41;;;22.89;100.00
12219;BME280;6172;42.646;23.344;2023-07-02T12:43:07;93936.38;;;22.61;100.00
12219;BME280;6172;42.646;23.344;2023-07-02T12:45:34;93940.94;;;22.64;100.00
12219;BME280;6172;42.646;23.344;2023-07-02T12:48:01;93931.66;;;22.23;100.00
12219;BME280;6172;42.646;23.344;2023-07-02T12:50:28;93938.22;;;22.42;100.00
12219;BME280;6172;42.646;23.344;2023-07-02T12:52:57;93937.59;;;22.82;100.00
12219;BME280;6172;42.646;23.344;2023-07-02T12:55:24;93941.41;;;22.68;100.00
12219;BME280;6172;42.646;23.344;2023-07-02T12:57:50;93937.91;;;22.62;100.00